Wetterdaten: November 2010
Datum Temp Feuchte Luftdruck Regen Wind Richtung Sonnenschein UV Solar Windben
01.11.2010 6,9 C 96 % 1011,3 hPa 0,2 l/m 0,8 km/h NW 1,58 h 0,8 UV-I 120 W/m 3,2 km/h
02.11.2010 9,1 C 90 % 1013,1 hPa 0,0 l/m 9,6 km/h S 0,58 h 0,8 UV-I 80 W/m 17,7 km/h
03.11.2010 10,7 C 93 % 1012,8 hPa 9,8 l/m 10,9 km/h S-SW 0,00 h 0,5 UV-I 35 W/m 25,7 km/h
04.11.2010 13,0 C 92 % 1017,3 hPa 3,6 l/m 14,5 km/h S-SW 0,00 h 0,5 UV-I 22 W/m 29,4 km/h
05.11.2010 11,3 C 97 % 1016,9 hPa 10,0 l/m 12,6 km/h S-SW 0,00 h 0,0 UV-I 21 W/m 29,8 km/h
06.11.2010 7,3 C 96 % 1011,0 hPa 20,0 l/m 5,8 km/h W 0,00 h 0,6 UV-I 39 W/m 16,1 km/h
07.11.2010 3,5 C 94 % 1002,8 hPa 0,8 l/m 2,5 km/h NO 0,00 h 0,6 UV-I 67 W/m 9,6 km/h
08.11.2010 2,5 C 95 % 984,1 hPa 0,4 l/m 8,4 km/h SO 0,00 h 0,6 UV-I 57 W/m 17,3 km/h
09.11.2010 5,0 C 96 % 981,3 hPa 6,4 l/m 6,3 km/h SO 0,50 h 0,5 UV-I 72 W/m 11,3 km/h
10.11.2010 4,6 C 97 % 993,0 hPa 8,2 l/m 6,0 km/h S-SO 0,17 h 0,5 UV-I 58 W/m 12,5 km/h
11.11.2010 4,3 C 90 % 994,9 hPa 10,2 l/m 21,5 km/h S 0,92 h 0,6 UV-I 86 W/m 34,2 km/h
12.11.2010 8,4 C 87 % 992,5 hPa 9,8 l/m 9,5 km/h S-SW 1,08 h 0,7 UV-I 96 W/m 25,0 km/h
13.11.2010 9,1 C 98 % 996,2 hPa 42,2 l/m 7,1 km/h S 0,00 h 0,0 UV-I 28 W/m 14,5 km/h
14.11.2010 12,0 C 85 % 998,9 hPa 5,0 l/m 11,9 km/h S 1,17 h 0,8 UV-I 92 W/m 19,7 km/h
15.11.2010 5,9 C 90 % 1014,4 hPa 0,0 l/m 1,0 km/h W-NW 0,00 h 0,6 UV-I 70 W/m 3,2 km/h
16.11.2010 4,1 C 92 % 1020,9 hPa 0,2 l/m 2,1 km/h N-NO 0,75 h 0,7 UV-I 78 W/m 6,4 km/h
17.11.2010 3,0 C 92 % 1012,0 hPa 0,2 l/m 2,3 km/h O-NO 0,08 h 0,5 UV-I 46 W/m 8,9 km/h
18.11.2010 3,8 C 96 % 1010,6 hPa 0,4 l/m 1,0 km/h SO 0,00 h 0,5 UV-I 42 W/m 2,8 km/h
19.11.2010 5,0 C 94 % 1015,4 hPa 0,2 l/m 0,8 km/h S 0,00 h 0,5 UV-I 58 W/m 1,6 km/h
20.11.2010 4,9 C 96 % 1015,0 hPa 1,6 l/m 4,9 km/h S 0,58 h 0,5 UV-I 73 W/m 8,8 km/h
21.11.2010 3,2 C 88 % 1009,4 hPa 0,2 l/m 6,1 km/h N-NO 3,75 h 0,7 UV-I 129 W/m 18,5 km/h
22.11.2010 2,4 C 96 % 1001,9 hPa 0,8 l/m 12,9 km/h N 0,00 h 0,0 UV-I 24 W/m 24,6 km/h
23.11.2010 1,5 C 97 % 1001,2 hPa 16,2 l/m 7,9 km/h N-NW 0,00 h 0,0 UV-I 13 W/m 20,9 km/h
24.11.2010 0,3 C 97 % 1004,8 hPa 5,4 l/m 2,2 km/h NW 0,00 h 0,5 UV-I 45 W/m 6,8 km/h
25.11.2010 0,1 C 97 % 1002,3 hPa 0,4 l/m 0,1 km/h S 0,00 h 0,0 UV-I 29 W/m 0,8 km/h
26.11.2010 -2,8 C 94 % 1004,5 hPa 0,2 l/m 0,1 km/h W-NW 0,00 h 0,0 UV-I 24 W/m 0,8 km/h
27.11.2010 -4,5 C 93 % 1006,5 hPa 0,0 l/m 1,7 km/h SO 0,08 h 0,0 UV-I 49 W/m 4,0 km/h
28.11.2010 -4,3 C 93 % 1007,5 hPa 0,0 l/m 1,0 km/h N 0,00 h 0,0 UV-I 51 W/m 5,2 km/h
29.11.2010 -3,3 C 93 % 1010,0 hPa 0,0 l/m 4,4 km/h N-NO 0,00 h 0,0 UV-I 28 W/m 14,1 km/h
30.11.2010 -5,2 C 86 % 1014,7 hPa 0,0 l/m 8,5 km/h NO 0,00 h 0,0 UV-I 35 W/m 21,7 km/h
Min-Datum 27.11.10 21.11.10 09.11.10 24 Tage 01.11.10 - - - - 01.11.10
Min-Zeit 05:55 14:20 04:05 - 00:35 - - - - 00:35
Minimum -8,1 C 70 % 978,7 hPa - 0,0 km/h - - - - 0,0 km/h
Max-Datum 14.11.10 01.11.10 16.11.10 13.11.10 11.11.10 - 21.11.10 01.11.10 14.11.10 11.11.10
Max-Zeit 12:45 10:55 10:40 04:55 19:50 - 14:20 11:30 12:10 18:20
Maximum 15,4 C 100 % 1022,1 hPa 42,2 l/m 36,6 km/h
S
- 3,67 h 1,2 UV-I 475 W/m 66,0 km/h
S
Durchschnitt 4,1 C 93 % 1005,9 hPa #152,4 l/m 6,1 km/h S #11:15 h 0,6 UV-I 56 W/m 13,8 km/h

Durchschnitt Minimum Temp.2,4 C
Durchschnitt Maximum Temp.6,3 C